Flight Track Log - Related Links

Times and Time Zones

All times are in EDT time to prevent confusion due to time zone crossing. See the SKW5516 flight status page for this flight to view local times or setup timezone preferences in your user account.

Time Position Orientation Groundspeed Altitude Reporting Facility
EDT Latitude Longitude Course Direction KTS MPH feet Rate Location/Type
Thu 10:27:17 AM 38.9333 -77.5333 218° Southwest 164 189 2,800  Level Potomac TRACON
Thu 10:28:17 AM 38.8833 -77.5833 218° Southwest 215 247 4,700 2,200 Climbing Potomac TRACON
Thu 10:29:17 AM 38.8167 -77.6000 191° South 265 305 7,200 2,141 Climbing Potomac TRACON
Thu 10:31:22 AM 38.6656 -77.5858 176° South 283 326 11,300 2,022 Climbing Washington Center
Thu 10:32:00 AM 38.3718 -77.5949 218° Southwest  Level FlightAware Approximate
Thu 10:32:21 AM 38.5758 -77.5808 178° South 304 350 13,400  Level Washington Center
Thu 10:33:21 AM 38.5022 -77.6239 205° Southwest 298 343 15,200 1,835 Climbing Washington Center
Thu 10:34:22 AM 38.4364 -77.6936 220° Southwest 293 337 17,100 1,820 Climbing Washington Center
Thu 10:35:23 AM 38.3683 -77.7686 221° Southwest 314 361 18,900 1,462 Climbing Washington Center
Thu 10:36:21 AM 38.2981 -77.8458 221° Southwest 330 380 20,000 1,119 Climbing Washington Center
Thu 10:37:21 AM 38.2256 -77.9256 221° Southwest 338 389 21,100 1,041 Climbing Washington Center
Thu 10:38:22 AM 38.1511 -78.0106 222° Southwest 350 403 22,100 984 Climbing Washington Center
Thu 10:39:23 AM 38.0700 -78.0975 220° Southwest 362 417 23,100 1,041 Climbing Washington Center
Thu 10:40:23 AM 37.9864 -78.1975 223° Southwest 377 434 24,200 1,220 Climbing Washington Center
Thu 10:41:21 AM 37.9156 -78.2975 228° Southwest 383 441 25,500 1,109 Climbing Washington Center
Thu 10:42:22 AM 37.8419 -78.4056 229° Southwest 394 453 26,400 738 Climbing Washington Center
Thu 10:43:23 AM 37.7750 -78.5028 229° Southwest 410 472 27,000 838 Climbing Washington Center
Thu 10:45:21 AM 37.6194 -78.7222 228° Southwest 423 487 28,900 944 Climbing Washington Center
Thu 10:46:21 AM 37.5414 -78.8344 229° Southwest 428 493 29,800 744 Climbing Washington Center
Thu 10:47:22 AM 37.4522 -78.9589 228° Southwest 428 493 30,400 496 Climbing Washington Center
Thu 10:48:22 AM 37.3697 -79.0728 228° Southwest 434 499 30,800 744 Climbing Washington Center
Thu 10:49:23 AM 37.2872 -79.1892 228° Southwest 441 507 31,900 1,109 Climbing Washington Center
Thu 10:50:21 AM 37.2025 -79.2972 225° Southwest 446 513 33,000 1,008 Climbing Washington Center
Thu 10:51:22 AM 37.1219 -79.4053 227° Southwest 439 505 33,900 836 Climbing Washington Center
Thu 10:52:23 AM 37.0411 -79.5158 228° Southwest 439 505 34,700 756 Climbing Washington Center
Thu 10:53:21 AM 36.9769 -79.6244 234° Southwest 434 499 35,400 661 Climbing Washington Center
Thu 10:54:21 AM 36.9042 -79.7400 232° Southwest 434 499 36,000 300 Climbing Washington Center
Thu 10:55:21 AM 36.8269 -79.8606 231° Southwest 434 499 36,000  Level Washington Center
Thu 10:56:22 AM 36.7406 -79.9956 231° Southwest 439 505 36,000  Level Washington Center
Thu 10:56:56 AM 36.6947 -80.0647 230° Southwest 447 514 36,000  Level Atlanta Center
Thu 10:57:56 AM 36.6172 -80.1850 231° Southwest 447 514 36,000  Level Atlanta Center
Thu 10:58:56 AM 36.5356 -80.3103 230° Southwest 447 514 36,000  Level Atlanta Center
Thu 10:59:00 AM 36.5498 -80.3171 230° Southwest  Level FlightAware Approximate
Thu 10:59:56 AM 36.4600 -80.4325 232° Southwest 452 520 36,000  Level Atlanta Center
Thu 11:00:56 AM 36.3881 -80.5417 231° Southwest 452 520 36,000  Level Atlanta Center
Thu 11:01:56 AM 36.3061 -80.6739 232° Southwest 452 520 36,000  Level Atlanta Center
Thu 11:02:56 AM 36.2281 -80.7931 231° Southwest 452 520 36,000  Level Atlanta Center
Thu 11:03:56 AM 36.1500 -80.9144 231° Southwest 452 520 36,000  Level Atlanta Center
Thu 11:04:56 AM 36.0736 -81.0331 231° Southwest 452 520 36,000  Level Atlanta Center
Thu 11:05:56 AM 35.9931 -81.1542 231° Southwest 452 520 36,000  Level Atlanta Center
Thu 11:06:56 AM 35.9167 -81.2747 232° Southwest 452 520 36,000  Level Atlanta Center
Thu 11:07:56 AM 35.8358 -81.3953 230° Southwest 452 520 36,000  Level Atlanta Center
Thu 11:08:56 AM 35.7569 -81.5181 232° Southwest 452 520 36,000  Level Atlanta Center
Thu 11:09:56 AM 35.6758 -81.6356 230° Southwest 452 520 36,000  Level Atlanta Center
Thu 11:10:56 AM 35.5947 -81.7556 230° Southwest 452 520 36,000  Level Atlanta Center
Thu 11:11:56 AM 35.5175 -81.8725 231° Southwest 452 520 36,000  Level Atlanta Center
Thu 11:12:56 AM 35.4383 -81.9894 230° Southwest 452 520 36,000  Level Atlanta Center
Thu 11:13:56 AM 35.3647 -82.0931 229° Southwest 452 520 36,000  Level Atlanta Center
Thu 11:14:56 AM 35.2875 -82.2119 232° Southwest 452 520 36,000  Level Atlanta Center
Thu 11:15:56 AM 35.2078 -82.3281 230° Southwest 452 520 36,000  Level Atlanta Center
Thu 11:16:56 AM 35.1258 -82.4439 229° Southwest 452 520 36,000  Level Atlanta Center
Thu 11:17:56 AM 35.0481 -82.5597 231° Southwest 452 520 36,000  Level Atlanta Center
Thu 11:18:56 AM 34.9639 -82.6828 230° Southwest 457 526 36,000  Level Atlanta Center
Thu 11:19:56 AM 34.8794 -82.8033 230° Southwest 463 533 36,000  Level Atlanta Center
Thu 11:20:56 AM 34.7828 -82.9336 228° Southwest 463 533 36,000  Level Atlanta Center
Thu 11:21:56 AM 34.7022 -83.0558 231° Southwest 469 540 36,000 -50 Level Atlanta Center
Thu 11:22:56 AM 34.6303 -83.1831 236° Southwest 469 540 35,900  Descending Atlanta Center
Thu 11:23:56 AM 34.5644 -83.3225 240° Southwest 469 540 36,000 50 Climbing Atlanta Center
Thu 11:24:56 AM 34.5003 -83.4617 241° Southwest 474 545 36,000  Level Atlanta Center
Thu 11:25:56 AM 34.4383 -83.5853 239° Southwest 474 545 36,000  Level Atlanta Center
Thu 11:26:56 AM 34.3636 -83.7117 234° Southwest 468 539 36,000  Level Atlanta Center
Thu 11:27:56 AM 34.2761 -83.8300 228° Southwest 474 545 36,000  Level Atlanta Center
Thu 11:28:56 AM 34.1867 -83.9508 228° Southwest 480 552 36,000  Level Atlanta Center
Thu 11:29:56 AM 34.0989 -84.0689 228° Southwest 480 552 36,000  Level Atlanta Center
Thu 11:30:56 AM 33.9986 -84.2067 229° Southwest 494 568 36,000  Level Atlanta Center
Thu 11:31:56 AM 33.9108 -84.3242 228° Southwest 494 568 36,000  Level Atlanta Center
Thu 11:32:56 AM 33.8144 -84.4464 227° Southwest 494 568 36,000  Level Atlanta Center
Thu 11:33:56 AM 33.7389 -84.5558 230° Southwest 488 562 36,000  Level Atlanta Center
Thu 11:34:56 AM 33.6508 -84.6703 227° Southwest 488 562 36,000  Level Atlanta Center
Thu 11:35:56 AM 33.5581 -84.7992 229° Southwest 499 574 36,000  Level Atlanta Center
Thu 11:36:56 AM 33.4675 -84.9178 228° Southwest 504 580 36,000  Level Atlanta Center
Thu 11:37:56 AM 33.3769 -85.0389 228° Southwest 499 574 36,000  Level Atlanta Center
Thu 11:38:56 AM 33.2842 -85.1569 227° Southwest 488 562 36,000  Level Atlanta Center
Thu 11:39:56 AM 33.1931 -85.2800 229° Southwest 488 562 36,000  Level Atlanta Center
Thu 11:40:56 AM 33.0956 -85.4175 230° Southwest 494 568 36,000  Level Atlanta Center
Thu 11:41:56 AM 33.0378 -85.5528 243° Southwest 469 540 36,000  Level Atlanta Center
Thu 11:42:56 AM 32.9775 -85.6956 243° Southwest 480 552 36,000  Level Atlanta Center
Thu 11:43:56 AM 32.9169 -85.8378 243° Southwest 486 559 36,000  Level Atlanta Center
Thu 11:44:56 AM 32.8606 -85.9875 246° West 486 559 36,000  Level Atlanta Center
Thu 11:45:56 AM 32.7997 -86.1294 243° Southwest 486 559 36,000  Level Atlanta Center
Thu 11:46:56 AM 32.7386 -86.2786 244° Southwest 491 565 36,000  Level Atlanta Center
Thu 11:47:56 AM 32.6794 -86.4228 244° Southwest 496 571 36,000  Level Atlanta Center
Thu 11:48:56 AM 32.6161 -86.5667 242° Southwest 496 571 36,000  Level Atlanta Center
Thu 11:49:56 AM 32.5547 -86.7103 243° Southwest 496 571 36,000  Level Atlanta Center
Thu 11:50:56 AM 32.4931 -86.8561 243° Southwest 489 563 36,000  Level Atlanta Center
Thu 11:51:56 AM 32.4333 -86.9969 243° Southwest 489 563 36,000  Level Atlanta Center
Thu 11:52:56 AM 32.3714 -87.1400 243° Southwest 489 563 36,000  Level Atlanta Center
Thu 11:53:56 AM 32.3094 -87.2803 242° Southwest 484 557 36,000  Level Atlanta Center
Thu 11:54:56 AM 32.2697 -87.4311 253° West 484 557 36,000  Level Atlanta Center
Thu 11:55:56 AM 32.2300 -87.5867 253° West 491 565 36,000  Level Atlanta Center
Thu 11:56:56 AM 32.1900 -87.7350 252° West 491 565 36,000  Level Atlanta Center
Thu 11:57:56 AM 32.1500 -87.8853 253° West 491 565 36,000  Level Atlanta Center
Thu 11:59:44 AM 32.0783 -88.1558 253° West 486 559 36,000  Level Memphis Center
Thu 12:00:45 PM 32.0392 -88.3036 253° West 479 551 36,000  Level Memphis Center
Thu 12:01:44 PM 32.0036 -88.4417 253° West 479 551 36,000  Level Memphis Center
Thu 12:02:44 PM 31.9642 -88.5894 253° West 484 557 36,000  Level Memphis Center
Thu 12:03:44 PM 31.9183 -88.7617 253° West 490 564 36,000  Level Memphis Center
Thu 12:04:44 PM 31.8786 -88.9092 252° West 490 564 36,000  Level Memphis Center
Thu 12:05:19 PM 31.8578 -88.9872 253° West 480 552 36,000  Level Houston Center
Thu 12:06:22 PM 31.8183 -89.1353 253° West 477 549 36,000  Level Houston Center
Thu 12:07:24 PM 31.7908 -89.2864 258° West 474 545 36,000  Level Houston Center
Thu 12:08:26 PM 31.7867 -89.4408 268° West 476 548 36,000  Level Houston Center
Thu 12:09:28 PM 31.7592 -89.6181 260° West 472 543 36,000  Level Houston Center
Thu 12:10:30 PM 31.7153 -89.7644 251° West 475 547 36,000  Level Houston Center
Thu 12:11:32 PM 31.6728 -89.9103 251° West 475 547 36,000 -48 Level Houston Center
Thu 12:12:34 PM 31.6311 -90.0550 251° West 470 541 35,900  Descending Houston Center
Thu 12:13:36 PM 31.5886 -90.2006 251° West 473 544 36,000 48 Climbing Houston Center
Thu 12:14:38 PM 31.5383 -90.3744 251° West 471 542 36,000  Level Houston Center
Thu 12:15:41 PM 31.4950 -90.5211 251° West 475 547 36,000 -48 Level Houston Center
Thu 12:16:43 PM 31.4519 -90.6653 251° West 470 541 35,900  Descending Houston Center
Thu 12:17:45 PM 31.4092 -90.8103 251° West 470 541 36,000 48 Climbing Houston Center
Thu 12:18:47 PM 31.3669 -90.9536 251° West 467 537 36,000  Level Houston Center
Thu 12:19:49 PM 31.3172 -91.1189 251° West 471 542 36,000  Level Houston Center
Thu 12:20:51 PM 31.2733 -91.2747 252° West 475 547 36,000  Level Houston Center
Thu 12:21:53 PM 31.2344 -91.4186 252° West 469 540 36,000  Level Houston Center
Thu 12:22:55 PM 31.1939 -91.5589 251° West 474 545 36,000  Level Houston Center
Thu 12:23:57 PM 31.1422 -91.7367 251° West 479 551 36,000  Level Houston Center
Thu 12:25:00 PM 31.0983 -91.8844 251° West 481 554 36,000  Level Houston Center
Thu 12:26:02 PM 31.0558 -92.0336 252° West 484 557 36,000  Level Houston Center
Thu 12:27:04 PM 31.0106 -92.1822 250° West 485 558 36,000  Level Houston Center
Thu 12:28:06 PM 30.9672 -92.3353 252° West 486 559 36,000  Level Houston Center
Thu 12:29:08 PM 30.9236 -92.4836 251° West 482 555 36,000  Level Houston Center
Thu 12:30:10 PM 30.8792 -92.6322 251° West 481 554 36,000  Level Houston Center
Thu 12:31:12 PM 30.8364 -92.7808 252° West 480 552 36,000  Level Houston Center
Thu 12:32:14 PM 30.7836 -92.9575 251° West 481 554 36,000 -48 Level Houston Center
Thu 12:33:16 PM 30.7447 -93.0939 252° West 481 554 35,900  Descending Houston Center
Thu 12:34:19 PM 30.7014 -93.2403 251° West 482 555 36,000 48 Climbing Houston Center
Thu 12:35:21 PM 30.6503 -93.4147 251° West 481 554 36,000  Level Houston Center
Thu 12:36:23 PM 30.6078 -93.5583 251° West 479 551 36,000  Level Houston Center
Thu 12:37:25 PM 30.5644 -93.7025 251° West 486 559 36,000  Level Houston Center
Thu 12:38:27 PM 30.5200 -93.8453 250° West 482 555 36,000  Level Houston Center
Thu 12:39:29 PM 30.4747 -93.9900 250° West 492 566 36,000  Level Houston Center
Thu 12:40:31 PM 30.4211 -94.1614 250° West 480 552 36,000  Level Houston Center
Thu 12:41:33 PM 30.3775 -94.3058 251° West 480 552 36,000 -48 Level Houston Center
Thu 12:42:36 PM 30.3325 -94.4486 250° West 474 545 35,900 -144 Descending Houston Center
Thu 12:43:38 PM 30.2864 -94.5981 250° West 481 554 35,700 -629 Descending Houston Center
Thu 12:44:40 PM 30.2428 -94.7411 251° West 477 549 34,600 -823 Descending Houston Center
Thu 12:45:42 PM 30.1978 -94.8814 250° West 470 541 34,000 -290 Descending Houston Center
Thu 12:46:44 PM 30.1442 -95.0522 250° West 475 547 34,000  Level Houston Center
Thu 12:47:46 PM 30.0983 -95.1964 250° West 482 555 34,000  Level Houston Center
Thu 12:48:48 PM 30.0525 -95.3400 250° West 483 556 34,000  Level Houston Center
Thu 12:49:50 PM 30.0072 -95.4853 250° West 485 558 34,000  Level Houston Center
Thu 12:50:53 PM 29.9508 -95.6572 249° West 482 555 34,000  Level Houston Center
Thu 12:51:55 PM 29.9042 -95.7989 249° West 478 550 34,000 48 Level Houston Center
Thu 12:52:57 PM 29.8575 -95.9414 249° West 479 551 34,100  Climbing Houston Center
Thu 12:53:59 PM 29.8050 -96.1000 249° West 474 545 34,000 -48 Descending Houston Center
Thu 12:55:01 PM 29.7819 -96.2464 260° West 473 544 34,000  Level Houston Center
Thu 12:56:03 PM 29.7925 -96.3972 275° West 473 544 34,000  Level Houston Center
Thu 12:57:05 PM 29.8061 -96.5475 276° West 473 544 34,000  Level Houston Center
Thu 12:58:07 PM 29.8164 -96.6947 275° West 467 537 34,000 -1,152 Level Houston Center
Thu 12:59:10 PM 29.8303 -96.8722 275° West 468 539 31,600 -2,544 Descending Houston Center
Thu 01:00:12 PM 29.8397 -97.0153 274° West 457 526 28,700 -2,903 Descending Houston Center
Thu 01:01:14 PM 29.8494 -97.1547 275° West 442 509 25,600 -3,000 Descending Houston Center
Thu 01:02:16 PM 29.8589 -97.2897 275° West 432 497 22,500 -3,000 Descending Houston Center
Thu 01:03:18 PM 29.8683 -97.4228 275° West 420 483 19,400 -3,194 Descending Houston Center
Thu 01:04:20 PM 29.8800 -97.5783 275° West 408 470 15,900 -3,319 Descending Houston Center
Thu 01:04:52 PM 29.8842 -97.6464 274° West 403 464 14,200 -2,903 Descending Houston Center
Thu 01:05:22 PM 29.8872 -97.7044 273° West 398 458 12,900 -1,180 Descending Houston Center
Thu 01:05:53 PM 29.8919 -97.7686 275° West 386 444 13,000 95 Climbing Houston Center
Thu 01:06:25 PM 29.8958 -97.8347 274° West 381 438 13,000 -290 Level Houston Center
Thu 01:06:55 PM 29.8886 -97.8869 261° West 362 417 12,700 -1,065 Descending Houston Center
Thu 01:07:27 PM 29.8664 -97.9378 243° Southwest 333 383 11,900 -1,600 Descending Houston Center
Thu 01:07:55 PM 29.8456 -97.9864 244° Southwest 307 353 11,100 -1,645 Descending Houston Center
Thu 01:08:29 PM 29.8256 -98.0333 244° Southwest 310 357 10,200 -1,574 Descending Houston Center
Thu 01:08:56 PM 29.8097 -98.0728 245° Southwest 295 339 9,500 -1,645 Descending Houston Center
Thu 01:09:31 PM 29.7903 -98.1169 243° Southwest 294 338 8,500 -1,672 Descending Houston Center
Thu 01:09:57 PM 29.7733 -98.1544 243° Southwest 287 330 7,800 -1,742 Descending Houston Center
Thu 01:10:33 PM 29.7528 -98.2033 244° Southwest 281 323 6,700 -1,672 Descending Houston Center
Thu 01:10:58 PM 29.7408 -98.2331 245° Southwest 276 318 6,100 -677 Descending Houston Center
Thu 01:11:35 PM 29.7200 -98.2806 243° Southwest 270 311 6,000 -98 Descending Houston Center
Thu 01:11:59 PM 29.7081 -98.3092 244° Southwest 266 306 6,000  Level Houston Center
Thu 01:12:37 PM 29.6853 -98.3628 244° Southwest 266 306 6,000  Level Houston Center
Thu 01:13:00 PM 29.6717 -98.3931 243° Southwest 270 311 6,000  Level Houston Center
Thu 01:13:39 PM 29.6511 -98.4408 244° Southwest 273 314 6,000 -197 Level Houston Center
Thu 01:14:01 PM 29.6494 -98.4728 267° West 266 306 5,800 -1,238 Descending Houston Center
Thu 01:14:42 PM 29.6731 -98.5211 299° West 259 298 4,700 -1,600 Descending Houston Center
Thu 01:15:01 PM 29.6853 -98.5431 303° West 253 291 4,200 -774 Descending Houston Center
Thu 01:15:44 PM 29.7086 -98.5847 303° West 242 278 3,900 -197 Descending Houston Center
Thu 01:16:02 PM 29.7158 -98.6019 296° West 204 235 4,000 97 Climbing Houston Center
Thu 01:16:46 PM 29.7281 -98.6433 289° West 199 229 4,000  Level Houston Center
Thu 01:17:03 PM 29.7167 -98.6569 226° Southwest 181 208 4,000 -387 Level Houston Center
Thu 01:17:48 PM 29.6825 -98.6503 170° South 184 212 3,600 -689 Descending Houston Center
Thu 01:18:04 PM 29.6675 -98.6483 174° South 176 203 3,300 -677 Descending Houston Center
Thu 01:18:50 PM 29.6425 -98.6144 130° Southeast 178 205 2,900 -222 Descending Houston Center
Thu 01:19:52 PM 29.6117 -98.5739 131° Southeast 171 197 2,900 -458 Level Houston Center
Thu 01:21:01 PM 29.5819 -98.5361 132° Southeast 135 155 1,900 -726 Descending Houston Center
Thu 01:21:56 PM 29.5594 -98.5053 130° Southeast 131 151 1,400 -564 Descending Houston Center
Thu 01:22:58 PM 29.5336 -98.4714 131° Southeast 130 150 800 -581 Descending Houston Center
Thu 01:24:00 PM 29.5333 -98.4667 16° North  Level FlightAware Approximate
Thu 01:31:00 PM 29.5340 -98.4691 16° North  Level Estimated

Login

Don't have an account? Register now (free) for customized features, flight alerts, and more!